Hartland, Maine
Current Conditions -  °F | °C
As of 1:55 PM on Wednesday 26 Nov 2014 (Local Time) from KWVL Reporting Station
Overcast Overcast  
Wind Chill: 28°   Ceiling: 1100
Heat Index: 34°   Visibility: 0.75mi
Dew Point: 28°   Wind: 7mph
Humidity: 81%   Direction: 360°N
Pressure: 30.14"   Gusts: NA
Location:  44.88°N, 69.45°W
Report Text: KWVL 261855Z 36006KT 3/4SM OVC011 01/M02 A3014 RMK AO1
Loading
Personal Weather Stations






























Interactive Weather Map New forecast layout! Learn more

10-Day Weather Forecast

Advertisements
Track Severe Weather on mobile